Time;durP1;ratioP1;P1;durP2;ratioP2;P2;SDS_P1;SDS_P2;PMS_P1;PMS_P2;Temp;Humidity;BMP_temperature;BMP_pressure;BME280_temperature;BME280_humidity;BME280_pressure;Samples;Min_cycle;Max_cycle;Signal;HPM_P1;HPM_P2
2023/10/14 00:01:09;;;;;;;4.05;0.95;;;19.40;99.90;;;;;;5014005;28;20364;-69
2023/10/14 00:03:35;;;;;;;7.53;1.42;;;19.30;99.90;;;;;;5013723;28;20304;-68
2023/10/14 00:06:08;;;;;;;6.63;1.25;;;19.30;99.90;;;;;;5013902;28;20025;-68
2023/10/14 00:08:35;;;;;;;6.93;1.33;;;19.20;99.90;;;;;;5013904;28;20464;-68
2023/10/14 00:11:07;;;;;;;7.22;1.33;;;19.30;99.90;;;;;;5013605;28;20450;-68
2023/10/14 00:13:42;;;;;;;;;;;19.20;99.90;;;;;;5014112;28;20026;-68
2023/10/14 00:16:39;;;;;;;7.63;0.98;;;19.20;99.90;;;;;;5013716;28;19911;-69
2023/10/14 00:19:08;;;;;;;8.32;1.77;;;19.10;99.90;;;;;;5013400;28;20018;-69
2023/10/14 00:21:35;;;;;;;6.80;1.35;;;19.10;99.90;;;;;;5013500;28;20030;-69
2023/10/14 00:24:03;;;;;;;5.22;1.35;;;19.10;99.90;;;;;;5013747;28;20029;-72
2023/10/14 00:26:30;;;;;;;7.47;1.45;;;19.00;99.90;;;;;;5013529;28;20033;-69
2023/10/14 00:31:40;;;;;;;9.73;1.80;;;19.00;99.90;;;;;;5013300;28;20096;-68
2023/10/14 00:34:06;;;;;;;7.90;1.38;;;19.00;99.90;;;;;;5013534;28;20026;-69
2023/10/14 00:36:33;;;;;;;10.88;1.83;;;19.00;99.90;;;;;;5013536;28;20079;-68
2023/10/14 00:39:00;;;;;;;9.75;2.17;;;19.00;99.90;;;;;;5013602;28;20030;-71
2023/10/14 00:41:27;;;;;;;10.30;1.80;;;19.00;99.90;;;;;;5013327;28;20036;-72
2023/10/14 00:43:54;;;;;;;5.45;1.30;;;19.00;99.90;;;;;;5013491;28;20053;-71
2023/10/14 00:46:23;;;;;;;5.93;1.42;;;18.90;99.90;;;;;;5012991;28;20108;-68
2023/10/14 00:48:51;;;;;;;13.27;2.15;;;18.90;99.90;;;;;;5013419;28;20029;-68
2023/10/14 00:51:19;;;;;;;8.18;1.50;;;18.90;99.90;;;;;;5013140;28;20022;-69
2023/10/14 00:53:52;;;;;;;8.73;1.98;;;18.90;99.90;;;;;;5013356;28;20022;-71
2023/10/14 00:56:27;;;;;;;10.00;2.30;;;18.90;99.90;;;;;;5013269;28;20014;-68
2023/10/14 00:58:58;;;;;;;7.82;2.20;;;18.90;99.90;;;;;;5013297;28;20068;-70
2023/10/14 01:04:21;;;;;;;10.60;2.35;;;18.80;99.90;;;;;;5013252;28;20056;-72
2023/10/14 01:09:41;;;;;;;9.40;2.50;;;18.80;99.90;;;;;;5013139;28;20125;-71
2023/10/14 01:12:19;;;;;;;9.88;2.70;;;18.70;99.90;;;;;;5013238;28;20109;-70
2023/10/14 01:14:45;;;;;;;7.03;1.92;;;18.70;99.90;;;;;;5013238;28;20022;-72
2023/10/14 01:17:21;;;;;;;11.90;2.97;;;18.80;99.90;;;;;;5011568;28;20022;-71
2023/10/14 01:19:47;;;;;;;9.43;2.80;;;18.70;99.90;;;;;;5015557;28;20026;-72
2023/10/14 01:22:13;;;;;;;10.00;2.33;;;18.70;99.90;;;;;;5016616;28;20034;-72
2023/10/14 01:24:39;;;;;;;8.48;2.40;;;18.60;99.90;;;;;;5017108;28;20383;-72
2023/10/14 01:27:06;;;;;;;10.35;2.55;;;18.60;99.90;;;;;;5016952;28;20026;-72
2023/10/14 01:29:38;;;;;;;9.75;2.42;;;18.60;99.90;;;;;;5016379;28;20575;-72
2023/10/14 01:32:24;;;;;;;13.65;3.33;;;18.60;99.90;;;;;;5015547;28;20117;-73
2023/10/14 01:34:59;;;;;;;12.00;2.80;;;18.60;99.90;;;;;;5016791;28;20052;-72
2023/10/14 01:37:34;;;;;;;9.55;2.03;;;18.60;99.90;;;;;;5016609;28;20028;-72
2023/10/14 01:40:16;;;;;;;11.55;2.55;;;18.60;99.90;;;;;;5015384;28;20076;-73
2023/10/14 01:42:42;;;;;;;14.23;2.60;;;18.50;99.90;;;;;;5016265;28;20513;-72
2023/10/14 01:45:08;;;;;;;11.07;2.53;;;18.50;99.90;;;;;;5016275;28;20029;-72
2023/10/14 01:47:42;;;;;;;14.23;3.20;;;18.50;99.90;;;;;;5016292;28;20083;-72
2023/10/14 01:50:12;;;;;;;10.43;2.95;;;18.50;99.90;;;;;;5016532;28;20161;-72
2023/10/14 01:52:38;;;;;;;8.20;2.25;;;18.40;99.90;;;;;;5016376;28;20485;-71
2023/10/14 01:55:05;;;;;;;12.52;3.28;;;18.40;99.90;;;;;;5016562;28;20022;-72
2023/10/14 01:57:31;;;;;;;13.90;3.15;;;18.30;99.90;;;;;;5016621;28;20025;-72
2023/10/14 01:59:57;;;;;;;11.95;2.83;;;18.30;99.90;;;;;;5016147;28;20026;-72
2023/10/14 02:02:22;;;;;;;13.70;3.00;;;18.20;99.90;;;;;;5016105;28;20041;-72
2023/10/14 02:04:55;;;;;;;10.10;2.60;;;18.20;99.90;;;;;;5016011;28;20100;-72
2023/10/14 02:07:21;;;;;;;10.90;2.92;;;18.10;99.90;;;;;;5015962;28;20026;-72
2023/10/14 02:09:55;;;;;;;10.93;3.05;;;18.00;99.90;;;;;;5015731;28;20040;-72
2023/10/14 02:12:21;;;;;;;17.05;2.80;;;18.10;99.90;;;;;;5016136;28;20018;-72
2023/10/14 02:14:57;;;;;;;10.13;2.72;;;18.00;99.90;;;;;;5015630;28;20104;-73
2023/10/14 02:17:24;;;;;;;14.43;3.67;;;18.00;99.90;;;;;;5014561;28;20430;-71
2023/10/14 02:19:51;;;;;;;11.65;2.95;;;17.90;99.80;;;;;;5015836;28;20040;-73
2023/10/14 02:22:22;;;;;;;10.95;2.17;;;17.90;99.60;;;;;;5015585;28;20084;-72
2023/10/14 02:24:48;;;;;;;15.57;2.63;;;17.90;99.10;;;;;;5015886;28;20034;-72
2023/10/14 02:27:14;;;;;;;11.30;2.50;;;17.90;99.30;;;;;;5015901;28;20018;-72
2023/10/14 02:29:46;;;;;;;7.63;2.15;;;17.70;99.50;;;;;;5014628;28;20045;-73
2023/10/14 02:32:13;;;;;;;11.80;2.38;;;17.70;99.10;;;;;;5015005;28;20054;-73
2023/10/14 02:34:39;;;;;;;10.02;2.28;;;17.70;99.20;;;;;;5015416;28;20076;-72
2023/10/14 02:37:07;;;;;;;12.23;2.42;;;17.60;99.10;;;;;;5015544;28;20022;-73
2023/10/14 02:39:33;;;;;;;11.35;2.28;;;17.60;99.20;;;;;;5015460;28;20038;-72
2023/10/14 02:41:59;;;;;;;11.32;2.72;;;17.60;99.20;;;;;;5015465;28;20414;-73
2023/10/14 02:44:28;;;;;;;8.52;2.38;;;17.60;99.00;;;;;;5014852;28;20029;-72
2023/10/14 02:46:54;;;;;;;8.57;2.50;;;17.50;99.60;;;;;;5015424;28;20018;-72
2023/10/14 02:49:24;;;;;;;11.95;3.05;;;17.50;99.10;;;;;;5014987;28;20037;-71
2023/10/14 02:51:52;;;;;;;10.43;2.08;;;17.40;99.20;;;;;;5014057;28;20497;-72
2023/10/14 02:54:27;;;;;;;12.77;2.75;;;17.40;99.10;;;;;;5015247;28;20112;-72
2023/10/14 02:57:00;;;;;;;12.85;2.25;;;17.40;99.00;;;;;;5015128;28;20482;-72
2023/10/14 02:59:38;;;;;;;9.57;2.58;;;17.40;98.60;;;;;;5015023;28;20026;-72
2023/10/14 03:07:28;;;;;;;15.02;2.63;;;17.20;98.60;;;;;;5015156;28;20037;-73
2023/10/14 03:09:58;;;;;;;12.93;2.58;;;17.20;98.70;;;;;;5014839;28;20030;-72
2023/10/14 03:12:25;;;;;;;7.85;1.88;;;17.20;98.40;;;;;;5014581;28;20022;-71
2023/10/14 03:14:54;;;;;;;8.10;1.38;;;17.20;98.40;;;;;;5014757;28;20034;-72
2023/10/14 03:17:41;;;;;;;8.23;1.80;;;17.20;98.60;;;;;;5014737;28;20018;-72
2023/10/14 03:23:19;;;;;;;12.10;1.50;;;17.20;98.40;;;;;;5014496;28;20034;-72
2023/10/14 03:25:50;;;;;;;10.73;2.05;;;17.20;98.20;;;;;;5014298;28;20025;-72
2023/10/14 03:28:20;;;;;;;10.70;1.70;;;17.20;98.20;;;;;;5018328;28;20526;-72
2023/10/14 03:30:54;;;;;;;9.48;2.03;;;17.10;98.50;;;;;;5003124;28;20046;-71
2023/10/14 03:33:21;;;;;;;16.30;2.10;;;17.10;98.40;;;;;;4993274;28;20421;-72
2023/10/14 03:36:03;;;;;;;9.50;1.83;;;17.20;98.40;;;;;;4992781;28;20018;-73
2023/10/14 03:41:16;;;;;;;;;;;17.20;98.00;;;;;;4994744;28;20034;-72
2023/10/14 03:43:48;;;;;;;10.30;2.20;;;17.30;98.30;;;;;;4994336;28;19992;-72
2023/10/14 03:46:23;;;;;;;8.75;1.52;;;17.20;98.20;;;;;;4994498;28;20460;-72
2023/10/14 03:48:50;;;;;;;12.95;2.05;;;17.20;98.10;;;;;;4994474;28;20025;-72
2023/10/14 03:51:30;;;;;;;9.68;1.92;;;17.10;98.00;;;;;;4994457;28;20026;-72
2023/10/14 03:54:08;;;;;;;13.20;2.67;;;17.00;98.20;;;;;;4994441;28;20464;-72
2023/10/14 03:56:34;;;;;;;6.47;1.90;;;17.00;97.90;;;;;;4994095;28;20029;-72
2023/10/14 03:59:01;;;;;;;7.47;1.63;;;17.00;98.10;;;;;;4996545;28;20419;-72
2023/10/14 04:01:34;;;;;;;10.05;2.40;;;17.00;98.20;;;;;;5012296;28;20030;-72
2023/10/14 04:04:14;;;;;;;13.23;2.15;;;17.00;98.20;;;;;;5014200;28;20547;-72
2023/10/14 04:06:41;;;;;;;11.57;2.45;;;17.00;98.50;;;;;;5013665;28;20132;-72
2023/10/14 04:09:10;;;;;;;9.73;3.42;;;17.10;98.30;;;;;;5013818;28;20463;-72
2023/10/14 04:11:38;;;;;;;9.48;2.47;;;16.90;98.10;;;;;;5014151;28;20501;-71
2023/10/14 04:14:07;;;;;;;12.05;2.00;;;16.80;98.00;;;;;;5012009;28;20026;-72
2023/10/14 04:16:47;;;;;;;7.93;2.10;;;16.90;98.20;;;;;;5013812;28;20080;-72
2023/10/14 04:19:44;;;;;;;8.60;2.28;;;17.00;98.40;;;;;;5014309;28;20077;-71
2023/10/14 04:22:32;;;;;;;8.85;1.55;;;16.90;97.80;;;;;;5013649;28;20072;-71
2023/10/14 04:31:00;;;;;;;12.52;2.28;;;16.60;97.90;;;;;;4994817;28;20050;-69
2023/10/14 04:35:56;;;;;;;11.70;2.30;;;16.50;98.50;;;;;;4994725;28;20054;-72
2023/10/14 04:38:28;;;;;;;11.93;2.33;;;16.50;98.10;;;;;;5011885;28;20022;-69
2023/10/14 04:40:54;;;;;;;13.10;1.67;;;16.40;98.00;;;;;;5011144;28;20037;-69
2023/10/14 04:43:49;;;;;;;8.95;2.72;;;16.40;98.10;;;;;;5013058;28;20386;-69
2023/10/14 04:48:37;;;;;;;11.15;2.17;;;16.40;97.90;;;;;;5013347;28;20030;-70
2023/10/14 04:51:07;;;;;;;9.75;2.30;;;16.40;97.90;;;;;;5013081;28;20048;-69
2023/10/14 04:53:33;;;;;;;15.45;2.78;;;16.30;98.00;;;;;;5013717;28;20133;-70
2023/10/14 04:56:04;;;;;;;13.43;3.15;;;16.20;98.10;;;;;;5017684;28;20057;-69
2023/10/14 04:58:32;;;;;;;11.05;2.85;;;16.20;98.10;;;;;;5015921;28;20022;-69
2023/10/14 05:01:03;;;;;;;14.15;3.10;;;16.30;98.00;;;;;;5015757;28;20064;-72
2023/10/14 05:03:29;;;;;;;10.63;3.83;;;16.20;98.10;;;;;;5017185;28;20112;-72
2023/10/14 05:08:46;;;;;;;16.48;4.75;;;16.00;98.40;;;;;;5015058;28;20041;-69
2023/10/14 05:11:22;;;;;;;8.35;3.53;;;16.00;98.60;;;;;;4997473;28;20061;-69
2023/10/14 05:14:08;;;;;;;11.30;3.63;;;16.00;98.80;;;;;;5014798;28;20151;-69
2023/10/14 05:19:30;;;;;;;12.80;3.97;;;15.90;98.60;;;;;;4997350;28;20066;-70
2023/10/14 05:22:10;;;;;;;12.32;3.08;;;15.90;98.80;;;;;;5009036;28;20069;-69
2023/10/14 05:24:36;;;;;;;8.38;2.83;;;15.90;98.90;;;;;;5015594;28;20033;-69
2023/10/14 05:27:02;;;;;;;10.43;3.20;;;15.80;99.00;;;;;;5015530;28;20479;-69
2023/10/14 05:29:31;;;;;;;12.73;2.70;;;15.80;99.00;;;;;;5014295;28;20036;-69
2023/10/14 05:32:10;;;;;;;12.30;3.10;;;15.80;99.00;;;;;;5015277;28;20041;-70
2023/10/14 05:34:43;;;;;;;13.02;2.67;;;15.80;99.00;;;;;;5016473;28;20067;-69
2023/10/14 05:37:11;;;;;;;;;;;15.70;99.00;;;;;;5016063;28;20383;-69
2023/10/14 05:39:40;;;;;;;7.95;2.75;;;15.70;99.00;;;;;;5015764;28;20004;-71
2023/10/14 05:42:15;;;;;;;12.52;2.40;;;15.70;99.10;;;;;;5016444;28;20041;-72
2023/10/14 05:44:57;;;;;;;10.95;2.70;;;15.70;99.10;;;;;;5015220;28;20022;-72
2023/10/14 05:47:27;;;;;;;8.67;2.27;;;15.70;99.40;;;;;;5016428;28;20484;-69
2023/10/14 05:49:53;;;;;;;10.02;2.22;;;15.70;99.10;;;;;;5016201;28;20045;-70
2023/10/14 05:52:24;;;;;;;10.48;2.13;;;15.60;99.30;;;;;;5016153;28;20022;-69
2023/10/14 05:54:50;;;;;;;10.27;2.40;;;15.60;99.20;;;;;;5016229;28;20021;-70
2023/10/14 05:57:20;;;;;;;11.40;2.15;;;15.50;99.40;;;;;;5013950;28;20041;-70
2023/10/14 05:59:48;;;;;;;12.10;2.33;;;15.50;99.30;;;;;;5015799;28;20045;-69
2023/10/14 06:02:15;;;;;;;10.25;2.10;;;15.50;99.30;;;;;;5013358;28;20033;-72
2023/10/14 06:04:41;;;;;;;9.20;1.88;;;15.40;99.30;;;;;;5014994;28;20042;-70
2023/10/14 06:07:18;;;;;;;15.00;2.25;;;15.40;99.40;;;;;;5014068;28;20101;-72
2023/10/14 06:09:45;;;;;;;9.98;2.40;;;15.40;99.70;;;;;;5019480;28;20046;-72
2023/10/14 06:12:16;;;;;;;12.82;2.63;;;15.40;99.50;;;;;;5013786;28;20081;-71
2023/10/14 06:14:43;;;;;;;11.73;1.70;;;15.40;99.40;;;;;;5013160;28;20490;-72
2023/10/14 06:17:09;;;;;;;9.82;3.00;;;15.40;99.40;;;;;;5014912;28;20100;-70
2023/10/14 06:19:38;;;;;;;8.75;2.30;;;15.40;99.40;;;;;;5015389;28;20030;-72
2023/10/14 06:22:07;;;;;;;9.55;2.28;;;15.40;99.30;;;;;;5015862;28;20049;-72
2023/10/14 06:24:33;;;;;;;13.02;2.50;;;15.40;99.50;;;;;;5016123;28;20046;-72
2023/10/14 06:27:08;;;;;;;11.55;2.17;;;15.40;99.40;;;;;;5015901;28;20037;-72
2023/10/14 06:29:35;;;;;;;10.23;2.40;;;15.40;99.40;;;;;;5015775;28;20065;-71
2023/10/14 06:32:03;;;;;;;6.97;2.03;;;15.30;99.40;;;;;;5015550;28;20026;-68
2023/10/14 06:34:31;;;;;;;9.73;1.95;;;16.00;99.90;;;;;;5015237;28;20029;-68
2023/10/14 06:37:01;;;;;;;8.43;1.88;;;16.70;99.90;;;;;;5014206;28;20049;-68
2023/10/14 06:39:27;;;;;;;6.78;1.70;;;17.10;99.90;;;;;;5014200;28;20034;-69
2023/10/14 06:41:55;;;;;;;8.50;1.80;;;17.30;99.90;;;;;;5013640;28;20041;-69
2023/10/14 06:44:27;;;;;;;6.55;2.25;;;17.50;99.60;;;;;;5015061;28;20057;-69
2023/10/14 06:46:56;;;;;;;9.17;2.27;;;17.50;99.50;;;;;;5015113;28;20360;-70
2023/10/14 06:49:30;;;;;;;13.13;2.40;;;17.60;99.20;;;;;;5013840;28;20030;-69
2023/10/14 06:51:58;;;;;;;8.18;1.73;;;17.60;99.10;;;;;;5015364;28;20029;-68
2023/10/14 06:54:28;;;;;;;10.90;2.00;;;17.60;99.10;;;;;;5014637;28;20137;-69
2023/10/14 06:56:55;;;;;;;8.93;1.92;;;17.70;98.90;;;;;;5011068;28;20033;-68
2023/10/14 06:59:21;;;;;;;10.88;2.17;;;17.80;99.10;;;;;;5011319;28;20053;-72
2023/10/14 07:01:47;;;;;;;11.40;2.53;;;17.70;98.50;;;;;;5002720;28;20034;-71
2023/10/14 07:04:13;;;;;;;8.10;2.10;;;17.20;97.40;;;;;;5008177;28;20499;-73
2023/10/14 07:06:39;;;;;;;9.05;2.08;;;17.00;97.60;;;;;;5007441;28;20037;-73
2023/10/14 07:09:16;;;;;;;13.20;2.30;;;17.00;97.90;;;;;;5009485;28;20022;-73
2023/10/14 07:11:45;;;;;;;9.50;2.15;;;16.90;97.90;;;;;;5006768;28;20387;-73
2023/10/14 07:14:11;;;;;;;13.70;2.45;;;16.70;97.60;;;;;;5000849;28;20107;-73
2023/10/14 07:16:37;;;;;;;11.07;2.83;;;16.70;97.60;;;;;;5005072;28;20526;-74
2023/10/14 07:19:02;;;;;;;7.13;2.25;;;16.70;97.60;;;;;;5010414;28;20033;-72
2023/10/14 07:21:29;;;;;;;11.75;2.55;;;16.60;97.60;;;;;;5016527;28;20026;-73
2023/10/14 07:23:55;;;;;;;10.98;2.50;;;16.70;97.80;;;;;;5013116;28;20032;-73
2023/10/14 07:26:22;;;;;;;12.85;2.92;;;16.60;97.30;;;;;;5014061;28;20017;-73
2023/10/14 07:28:53;;;;;;;12.55;2.85;;;16.50;97.60;;;;;;5013625;28;20030;-73
2023/10/14 07:31:19;;;;;;;7.23;2.63;;;16.50;97.40;;;;;;5014081;28;20398;-73
2023/10/14 07:33:45;;;;;;;14.85;2.88;;;16.50;98.30;;;;;;5010716;28;20514;-74
2023/10/14 07:36:14;;;;;;;12.30;3.70;;;16.70;99.20;;;;;;5016833;28;20053;-73
2023/10/14 07:38:42;;;;;;;9.77;3.15;;;16.60;97.80;;;;;;5013811;28;20036;-73
2023/10/14 07:41:10;;;;;;;19.20;3.60;;;16.50;97.40;;;;;;5012198;28;20030;-73
2023/10/14 07:43:36;;;;;;;13.75;3.72;;;16.50;97.40;;;;;;5012533;28;20022;-73
2023/10/14 07:46:03;;;;;;;10.82;3.30;;;16.40;97.40;;;;;;5013800;28;20121;-74
2023/10/14 07:48:29;;;;;;;11.43;3.30;;;16.40;97.50;;;;;;5000925;28;20023;-74
2023/10/14 07:50:58;;;;;;;12.43;3.70;;;16.40;97.50;;;;;;4993699;28;20038;-75
2023/10/14 07:53:25;;;;;;;16.20;3.80;;;16.50;97.40;;;;;;4994216;28;20034;-74
2023/10/14 07:55:53;;;;;;;15.18;4.07;;;16.60;97.30;;;;;;4994217;28;20018;-74
2023/10/14 07:58:23;;;;;;;12.65;3.58;;;16.40;97.20;;;;;;4994466;28;20022;-73
2023/10/14 08:00:50;;;;;;;10.40;2.88;;;16.50;97.30;;;;;;5006169;28;20042;-74
2023/10/14 08:03:26;;;;;;;10.85;3.50;;;16.60;97.90;;;;;;5012346;28;20099;-72
2023/10/14 08:05:59;;;;;;;9.98;2.90;;;16.80;99.10;;;;;;5013316;28;20026;-73
2023/10/14 08:08:30;;;;;;;14.88;3.17;;;16.90;99.20;;;;;;5003905;28;20403;-71
2023/10/14 08:10:58;;;;;;;12.07;3.90;;;16.90;97.80;;;;;;5012929;28;20061;-72
2023/10/14 08:13:24;;;;;;;10.32;3.15;;;16.90;99.00;;;;;;5013246;28;20033;-69
2023/10/14 08:15:52;;;;;;;11.57;2.80;;;16.90;98.60;;;;;;5010723;28;20091;-73
2023/10/14 08:18:19;;;;;;;8.65;2.60;;;16.90;99.00;;;;;;5012408;28;20026;-71
2023/10/14 08:20:45;;;;;;;10.98;2.95;;;16.90;99.80;;;;;;5010400;28;20108;-73
2023/10/14 08:23:12;;;;;;;12.20;2.55;;;17.00;99.00;;;;;;5012071;28;20030;-73
2023/10/14 08:25:39;;;;;;;15.93;3.60;;;17.10;99.90;;;;;;5009305;28;20037;-72
2023/10/14 08:28:06;;;;;;;13.63;3.40;;;17.10;99.50;;;;;;5003338;28;20022;-72
2023/10/14 08:30:34;;;;;;;15.70;3.50;;;17.00;99.60;;;;;;5010623;28;20074;-72
2023/10/14 08:33:01;;;;;;;14.05;3.22;;;17.00;99.90;;;;;;5009839;28;20037;-72
2023/10/14 08:35:27;;;;;;;15.40;3.20;;;17.10;99.90;;;;;;5011941;28;20096;-72
2023/10/14 08:37:55;;;;;;;11.15;3.10;;;17.20;99.90;;;;;;5013183;28;20323;-72
2023/10/14 08:40:25;;;;;;;13.82;3.17;;;17.20;99.10;;;;;;5012797;28;20030;-72
2023/10/14 08:42:54;;;;;;;10.90;3.13;;;17.20;99.90;;;;;;5009594;28;20034;-71
2023/10/14 08:45:21;;;;;;;13.77;3.00;;;17.10;99.90;;;;;;5008166;28;20088;-72
2023/10/14 08:47:51;;;;;;;14.02;3.50;;;17.20;99.60;;;;;;5008052;28;20160;-73
2023/10/14 08:50:29;;;;;;;10.70;3.35;;;17.20;98.70;;;;;;5004216;28;20157;-72
2023/10/14 08:52:56;;;;;;;12.80;3.42;;;17.10;98.30;;;;;;5010020;28;20057;-71
2023/10/14 08:55:23;;;;;;;12.23;2.90;;;17.10;98.10;;;;;;5010641;28;20068;-71
2023/10/14 08:57:50;;;;;;;14.00;3.88;;;17.20;99.60;;;;;;5007666;28;20030;-72
2023/10/14 09:00:23;;;;;;;15.45;3.30;;;17.20;99.50;;;;;;5011038;28;20145;-72
2023/10/14 09:02:54;;;;;;;12.50;3.75;;;17.20;99.10;;;;;;5009043;28;20029;-72
2023/10/14 09:05:21;;;;;;;12.27;3.50;;;17.20;98.70;;;;;;5008173;28;20421;-72
2023/10/14 09:07:49;;;;;;;16.13;3.88;;;17.20;98.60;;;;;;5011544;28;20044;-72
2023/10/14 09:10:19;;;;;;;15.88;3.85;;;17.30;98.00;;;;;;5012008;28;20034;-73
2023/10/14 09:12:57;;;;;;;12.30;3.13;;;17.20;98.50;;;;;;5009251;28;20046;-73
2023/10/14 09:15:27;;;;;;;18.25;4.00;;;17.30;99.20;;;;;;5007584;28;20113;-73
2023/10/14 09:17:55;;;;;;;16.00;4.10;;;17.30;99.50;;;;;;5006680;28;20371;-74
2023/10/14 09:20:37;;;;;;;13.90;4.45;;;17.30;99.90;;;;;;5011689;28;20029;-73
2023/10/14 09:23:14;;;;;;;15.35;4.88;;;17.30;99.90;;;;;;5010424;28;20487;-73
2023/10/14 09:25:46;;;;;;;17.05;4.85;;;17.40;99.90;;;;;;5011067;28;20030;-72
2023/10/14 09:28:12;;;;;;;15.85;5.22;;;17.40;99.90;;;;;;5007758;28;20561;-72
2023/10/14 09:30:44;;;;;;;16.92;5.05;;;17.40;99.90;;;;;;5010609;28;20065;-73
2023/10/14 09:33:13;;;;;;;25.98;5.95;;;17.40;99.90;;;;;;5010960;28;20100;-73
2023/10/14 09:35:41;;;;;;;16.55;4.38;;;17.50;99.90;;;;;;5010084;28;20519;-73
2023/10/14 09:38:08;;;;;;;14.00;3.75;;;17.40;99.90;;;;;;5008224;28;20268;-73
2023/10/14 09:40:35;;;;;;;17.88;4.63;;;17.40;99.00;;;;;;5011574;28;20438;-72
2023/10/14 09:43:03;;;;;;;15.48;4.05;;;17.40;99.50;;;;;;5013917;28;20115;-73
2023/10/14 09:45:32;;;;;;;13.05;3.63;;;17.40;99.90;;;;;;5013813;28;20557;-72
2023/10/14 09:48:01;;;;;;;14.07;4.38;;;17.40;99.90;;;;;;5013646;28;20441;-73
2023/10/14 09:50:27;;;;;;;16.95;3.28;;;17.40;99.90;;;;;;5012044;28;20034;-73
2023/10/14 09:52:53;;;;;;;16.38;5.00;;;17.40;98.20;;;;;;5012234;28;20050;-71
2023/10/14 09:55:20;;;;;;;11.55;3.25;;;17.40;99.60;;;;;;5011177;28;20022;-72
2023/10/14 09:57:47;;;;;;;17.08;3.97;;;17.40;98.80;;;;;;5009747;28;20032;-73
2023/10/14 10:00:16;;;;;;;22.23;4.18;;;17.50;99.90;;;;;;5012595;28;20109;-72
2023/10/14 10:02:44;;;;;;;15.68;3.45;;;17.40;99.90;;;;;;5013744;28;20026;-73
2023/10/14 10:05:16;;;;;;;17.58;3.08;;;17.40;98.80;;;;;;5009370;28;20038;-72
2023/10/14 10:07:54;;;;;;;;;;;17.20;99.10;;;;;;5010446;28;20125;-72
2023/10/14 10:10:28;;;;;;;14.80;2.70;;;17.30;98.40;;;;;;5002177;28;20325;-70
2023/10/14 10:12:57;;;;;;;11.75;2.60;;;17.30;98.60;;;;;;5010828;28;20033;-70
2023/10/14 10:15:23;;;;;;;8.43;2.33;;;17.30;98.90;;;;;;5011270;28;20026;-71
2023/10/14 10:18:01;;;;;;;16.35;3.28;;;17.30;99.00;;;;;;5012949;28;20098;-71
2023/10/14 10:20:28;;;;;;;9.48;2.35;;;17.30;98.30;;;;;;5013315;28;20022;-72
2023/10/14 10:22:57;;;;;;;12.77;2.75;;;17.10;97.60;;;;;;5009941;28;20482;-70
2023/10/14 10:25:47;;;;;;;14.85;2.92;;;17.20;98.00;;;;;;5010305;28;20037;-70
2023/10/14 10:28:28;;;;;;;12.45;2.60;;;17.20;97.50;;;;;;5012235;28;20109;-70
2023/10/14 10:31:17;;;;;;;13.98;3.30;;;17.30;98.00;;;;;;5011718;28;20046;-69
2023/10/14 10:34:12;;;;;;;18.65;2.85;;;17.30;97.90;;;;;;5005528;28;20030;-70
2023/10/14 10:36:38;;;;;;;14.73;3.15;;;17.20;98.00;;;;;;5004239;28;20041;-71
2023/10/14 10:39:15;;;;;;;9.68;2.60;;;17.10;97.80;;;;;;5013417;28;20025;-70
2023/10/14 10:41:41;;;;;;;9.82;2.53;;;17.10;97.90;;;;;;5013711;28;20030;-69
2023/10/14 10:44:10;;;;;;;9.63;2.38;;;17.20;98.50;;;;;;5011522;28;20053;-71
2023/10/14 10:46:44;;;;;;;11.60;2.60;;;17.30;99.40;;;;;;5011632;28;20085;-70
2023/10/14 10:49:12;;;;;;;12.80;2.72;;;17.30;98.80;;;;;;5010821;28;20018;-72
2023/10/14 10:52:14;;;;;;;11.93;2.63;;;17.20;97.50;;;;;;5011434;28;20583;-72
2023/10/14 10:54:45;;;;;;;13.07;2.65;;;17.20;97.70;;;;;;5012457;28;20021;-71
2023/10/14 10:57:11;;;;;;;11.00;1.85;;;17.20;98.00;;;;;;5012516;28;20038;-70
2023/10/14 10:59:38;;;;;;;13.65;2.63;;;17.20;98.20;;;;;;5012725;28;20026;-69
2023/10/14 11:02:11;;;;;;;12.95;2.92;;;17.20;98.00;;;;;;5010452;28;20028;-71
2023/10/14 11:04:39;;;;;;;12.93;2.78;;;17.20;98.00;;;;;;5010773;28;20018;-69
2023/10/14 11:07:13;;;;;;;9.50;2.45;;;17.20;97.40;;;;;;5012412;28;20049;-71
2023/10/14 11:09:39;;;;;;;7.18;1.60;;;17.30;98.20;;;;;;5005032;28;20045;-70
2023/10/14 11:12:09;;;;;;;6.88;1.42;;;17.30;96.10;;;;;;5006401;28;20034;-70
2023/10/14 11:14:35;;;;;;;8.55;1.42;;;17.20;96.50;;;;;;5008111;28;20053;-72
2023/10/14 11:17:01;;;;;;;5.63;1.25;;;17.20;95.90;;;;;;5007967;28;20076;-72
2023/10/14 11:19:32;;;;;;;5.75;1.05;;;17.20;95.40;;;;;;5008513;28;20152;-72
2023/10/14 11:21:59;;;;;;;4.97;1.40;;;17.20;95.40;;;;;;5006020;28;20022;-70
2023/10/14 11:24:30;;;;;;;9.38;1.88;;;17.20;97.00;;;;;;5008930;28;20117;-69
2023/10/14 11:26:57;;;;;;;8.83;2.27;;;17.30;97.00;;;;;;5009476;28;20105;-69
2023/10/14 11:29:27;;;;;;;9.05;2.00;;;17.20;95.90;;;;;;5005513;28;20026;-70
2023/10/14 11:31:57;;;;;;;12.40;2.20;;;17.10;95.80;;;;;;5001138;28;20372;-68
2023/10/14 11:34:23;;;;;;;7.25;1.30;;;17.10;95.90;;;;;;5004080;28;20080;-71
2023/10/14 11:36:49;;;;;;;10.63;2.15;;;17.20;97.40;;;;;;5009699;28;20032;-72
2023/10/14 11:39:21;;;;;;;9.90;2.47;;;17.30;97.50;;;;;;5010439;28;20033;-71
2023/10/14 11:41:50;;;;;;;10.48;2.17;;;17.40;97.90;;;;;;5006571;28;20045;-71
2023/10/14 11:44:19;;;;;;;8.60;1.90;;;17.40;98.20;;;;;;5009947;28;20087;-71
2023/10/14 11:46:45;;;;;;;10.38;2.50;;;17.50;98.40;;;;;;5012460;28;20041;-70
2023/10/14 11:49:12;;;;;;;11.30;3.08;;;17.50;98.10;;;;;;5020660;23;20131;-72
2023/10/14 11:51:42;;;;;;;11.80;2.78;;;17.50;96.90;;;;;;4996830;22;20076;-70
2023/10/14 11:54:11;;;;;;;17.55;2.72;;;17.50;96.80;;;;;;4965303;28;20483;-70
2023/10/14 11:56:38;;;;;;;13.68;2.55;;;17.40;96.60;;;;;;4971625;28;20042;-72
2023/10/14 11:59:04;;;;;;;10.50;2.92;;;17.40;96.20;;;;;;4968409;28;20102;-73
2023/10/14 12:01:34;;;;;;;15.25;3.05;;;17.30;95.80;;;;;;4970164;28;20110;-72
2023/10/14 12:04:02;;;;;;;11.82;2.13;;;17.40;96.00;;;;;;4979410;28;20026;-75
2023/10/14 12:06:30;;;;;;;10.45;2.08;;;17.30;95.30;;;;;;4971611;28;20476;-72
2023/10/14 12:08:57;;;;;;;12.05;2.33;;;17.30;95.80;;;;;;4973615;28;20027;-72
2023/10/14 12:11:24;;;;;;;16.90;2.47;;;17.30;95.40;;;;;;4968554;28;20045;-73
2023/10/14 12:13:51;;;;;;;6.97;2.17;;;17.30;95.00;;;;;;4972745;28;20031;-70
2023/10/14 12:16:18;;;;;;;12.65;2.17;;;17.30;95.30;;;;;;4966962;28;20093;-69
2023/10/14 12:18:45;;;;;;;13.73;3.35;;;17.40;96.10;;;;;;4962459;28;20058;-74
2023/10/14 12:21:11;;;;;;;10.57;2.40;;;17.50;96.80;;;;;;4968189;28;20031;-68
2023/10/14 12:23:38;;;;;;;13.93;3.25;;;17.50;96.10;;;;;;4965644;28;20038;-69
2023/10/14 12:26:03;;;;;;;16.55;3.15;;;17.50;95.70;;;;;;4969868;28;20113;-70
2023/10/14 12:28:33;;;;;;;13.80;2.80;;;17.50;95.50;;;;;;4971161;28;20572;-69
2023/10/14 12:31:02;;;;;;;11.63;2.15;;;17.60;96.20;;;;;;4968050;28;20050;-69
2023/10/14 12:33:31;;;;;;;9.38;2.45;;;17.50;94.90;;;;;;4964939;28;20050;-69
2023/10/14 12:36:06;;;;;;;9.25;2.67;;;17.50;95.30;;;;;;4965846;28;20197;-71
2023/10/14 12:38:32;;;;;;;12.63;2.63;;;17.50;94.70;;;;;;4969099;28;20023;-69
2023/10/14 12:41:01;;;;;;;12.60;2.63;;;17.50;95.30;;;;;;4971932;28;20041;-70
2023/10/14 12:43:28;;;;;;;13.20;3.45;;;17.60;95.60;;;;;;4971741;28;20058;-70
2023/10/14 12:46:09;;;;;;;11.18;2.33;;;17.50;94.80;;;;;;4971418;28;20046;-68
2023/10/14 12:48:39;;;;;;;11.75;2.22;;;17.50;95.00;;;;;;4970270;28;20476;-73
2023/10/14 12:51:11;;;;;;;11.50;2.92;;;17.60;95.10;;;;;;4972172;28;20034;-69
2023/10/14 12:53:45;;;;;;;12.40;2.25;;;17.60;95.30;;;;;;4990926;28;20105;-68
2023/10/14 12:56:14;;;;;;;11.15;2.88;;;17.60;95.10;;;;;;4988338;28;20038;-66
2023/10/14 12:58:45;;;;;;;12.48;2.45;;;17.60;94.80;;;;;;4991814;28;20030;-68
2023/10/14 13:01:19;;;;;;;10.27;2.30;;;17.60;94.60;;;;;;4984559;28;20054;-66
2023/10/14 13:03:46;;;;;;;9.80;2.08;;;17.60;94.70;;;;;;4987842;28;20467;-69
2023/10/14 13:06:17;;;;;;;9.27;2.60;;;17.60;94.00;;;;;;4986336;28;20042;-69
2023/10/14 13:08:43;;;;;;;10.32;2.20;;;17.60;93.80;;;;;;4991877;28;20402;-72
2023/10/14 13:11:14;;;;;;;8.93;2.38;;;17.60;94.10;;;;;;4992134;28;20061;-72
2023/10/14 13:13:40;;;;;;;8.85;2.40;;;17.60;93.70;;;;;;4990381;28;20069;-69
2023/10/14 13:16:07;;;;;;;9.95;2.05;;;17.60;93.00;;;;;;4993974;28;20058;-71
2023/10/14 13:18:32;;;;;;;13.80;3.10;;;17.70;95.00;;;;;;4996380;28;20031;-72
2023/10/14 13:20:59;;;;;;;8.73;2.53;;;17.70;94.10;;;;;;4997075;28;20053;-69
2023/10/14 13:23:26;;;;;;;7.90;2.15;;;17.70;95.00;;;;;;4997128;28;20035;-68
2023/10/14 13:25:52;;;;;;;14.57;2.67;;;17.70;94.60;;;;;;4997192;28;20037;-66
2023/10/14 13:28:21;;;;;;;9.32;2.30;;;17.70;93.70;;;;;;4994321;28;20026;-67
2023/10/14 13:30:47;;;;;;;7.63;1.70;;;17.70;93.30;;;;;;4996578;28;20461;-67